createdAt,value
2019-02-17T00:01:28.980Z,0.50
2019-02-17T00:03:58.713Z,0.50
2019-02-17T00:06:30.391Z,0.50
2019-02-17T00:09:00.729Z,0.60
2019-02-17T00:11:32.371Z,0.60
2019-02-17T00:14:04.523Z,0.70
2019-02-17T00:16:36.556Z,0.70
2019-02-17T00:19:09.280Z,0.70
2019-02-17T00:21:39.670Z,0.70
2019-02-17T00:24:11.604Z,0.70
2019-02-17T00:26:43.603Z,0.70
2019-02-17T00:29:14.314Z,0.70
2019-02-17T00:31:45.071Z,0.60
2019-02-17T00:34:15.854Z,0.60
2019-02-17T00:36:46.715Z,0.60
2019-02-17T00:39:17.075Z,0.60
2019-02-17T00:41:49.900Z,0.60
2019-02-17T00:44:21.228Z,0.70
2019-02-17T00:46:52.059Z,0.60
2019-02-17T00:49:23.266Z,0.60
2019-02-17T00:51:54.094Z,0.50
2019-02-17T00:54:24.835Z,0.50
2019-02-17T00:56:55.013Z,0.50
2019-02-17T00:59:25.270Z,0.50
2019-02-17T01:01:56.404Z,0.50
2019-02-17T01:04:28.468Z,0.50
2019-02-17T01:07:00.093Z,0.50
2019-02-17T01:09:31.135Z,0.50
2019-02-17T01:12:03.098Z,0.40
2019-02-17T01:14:34.757Z,0.40
2019-02-17T01:17:10.231Z,0.40
2019-02-17T01:19:40.649Z,0.40
2019-02-17T01:22:12.183Z,0.40
2019-02-17T01:24:45.190Z,0.30
2019-02-17T01:27:14.864Z,0.30
2019-02-17T01:29:46.235Z,0.20
2019-02-17T01:32:16.735Z,0.20
2019-02-17T01:34:48.223Z,0.20
2019-02-17T01:37:20.295Z,0.20
2019-02-17T01:39:55.077Z,0.20
2019-02-17T01:42:28.488Z,0.20
2019-02-17T01:44:58.989Z,0.20
2019-02-17T01:47:30.301Z,0.20
2019-02-17T01:50:02.649Z,0.10
2019-02-17T01:52:34.428Z,0.10
2019-02-17T01:55:05.751Z,0.00
2019-02-17T01:57:37.764Z,-0.10
2019-02-17T02:00:10.724Z,-0.10
2019-02-17T02:02:42.164Z,-0.20
2019-02-17T02:05:14.491Z,-0.20
2019-02-17T02:07:44.798Z,-0.30
2019-02-17T02:10:15.181Z,-0.30
2019-02-17T02:12:45.898Z,-0.30
2019-02-17T02:15:17.632Z,-0.30
2019-02-17T02:17:48.930Z,-0.30
2019-02-17T02:20:19.936Z,-0.40
2019-02-17T02:22:48.988Z,-0.30
2019-02-17T02:25:20.474Z,-0.30
2019-02-17T02:27:51.594Z,-0.30
2019-02-17T02:30:22.401Z,-0.40
2019-02-17T02:32:53.002Z,-0.40
2019-02-17T02:35:23.242Z,-0.30
2019-02-17T02:37:55.491Z,-0.40
2019-02-17T02:40:31.263Z,-0.40
2019-02-17T02:43:04.012Z,-0.40
2019-02-17T02:45:36.107Z,-0.50
2019-02-17T02:48:08.001Z,-0.50
2019-02-17T02:50:39.865Z,-0.60
2019-02-17T02:53:12.055Z,-0.60
2019-02-17T02:55:43.483Z,-0.70
2019-02-17T02:58:16.782Z,-0.70
2019-02-17T03:00:47.627Z,-0.70
2019-02-17T03:03:18.013Z,-0.70
2019-02-17T03:08:42.202Z,-0.80
2019-02-17T03:11:11.859Z,-0.80
2019-02-17T03:13:42.825Z,-0.80
2019-02-17T03:16:13.891Z,-0.80
2019-02-17T03:18:43.515Z,-0.80
2019-02-17T03:21:15.967Z,-0.90
2019-02-17T03:23:45.915Z,-0.90
2019-02-17T03:26:17.842Z,-0.90
2019-02-17T03:28:47.459Z,-0.90
2019-02-17T03:31:18.828Z,-1.00
2019-02-17T03:33:53.345Z,-1.00
2019-02-17T03:36:22.906Z,-1.00
2019-02-17T03:38:53.598Z,-1.00
2019-02-17T03:41:25.195Z,-1.00
2019-02-17T03:43:54.772Z,-1.00
2019-02-17T03:46:25.578Z,-1.00
2019-02-17T03:48:57.417Z,-1.00
2019-02-17T03:51:28.909Z,-0.90
2019-02-17T03:54:00.351Z,-0.90
2019-02-17T03:56:32.065Z,-0.90
2019-02-17T03:59:03.552Z,-1.00
2019-02-17T04:01:35.384Z,-0.90
2019-02-17T04:04:07.616Z,-0.90
2019-02-17T04:06:38.434Z,-0.90
2019-02-17T04:09:09.288Z,-0.90
2019-02-17T04:11:39.837Z,-1.00
2019-02-17T04:14:10.596Z,-1.00
2019-02-17T04:16:42.067Z,-1.00
2019-02-17T04:19:13.340Z,-1.10
2019-02-17T04:21:45.598Z,-1.10
2019-02-17T04:24:17.280Z,-1.10
2019-02-17T04:26:48.291Z,-1.20
2019-02-17T04:29:21.635Z,-1.10
2019-02-17T04:31:53.083Z,-1.20
2019-02-17T04:34:23.788Z,-1.10
2019-02-17T04:36:56.760Z,-1.20
2019-02-17T04:39:28.051Z,-1.20
2019-02-17T04:41:58.390Z,-1.30
2019-02-17T04:44:29.734Z,-1.30
2019-02-17T04:47:00.659Z,-1.30
2019-02-17T04:49:32.121Z,-1.30
2019-02-17T04:52:02.865Z,-1.40
2019-02-17T04:54:33.577Z,-1.30
2019-02-17T04:57:04.614Z,-1.40
2019-02-17T04:59:36.109Z,-1.40
2019-02-17T05:02:07.455Z,-1.40
2019-02-17T05:04:37.735Z,-1.40
2019-02-17T05:07:07.535Z,-1.50
2019-02-17T05:09:38.391Z,-1.50
2019-02-17T05:12:09.842Z,-1.50
2019-02-17T05:14:41.182Z,-1.50
2019-02-17T05:17:12.818Z,-1.60
2019-02-17T05:19:44.894Z,-1.60
2019-02-17T05:22:15.928Z,-1.60
2019-02-17T05:24:47.604Z,-1.60
2019-02-17T05:27:20.878Z,-1.70
2019-02-17T05:29:53.467Z,-1.70
2019-02-17T05:32:27.614Z,-1.70
2019-02-17T05:34:59.863Z,-1.80
2019-02-17T05:37:32.546Z,-1.80
2019-02-17T05:40:03.524Z,-1.80
2019-02-17T05:42:33.903Z,-1.80
2019-02-17T05:45:05.251Z,-1.80
2019-02-17T05:47:36.838Z,-1.80
2019-02-17T05:50:08.805Z,-1.80
2019-02-17T05:52:39.638Z,-1.80
2019-02-17T05:55:13.079Z,-1.80
2019-02-17T05:57:43.895Z,-1.80
2019-02-17T06:00:16.310Z,-1.80
2019-02-17T06:02:49.251Z,-1.80
2019-02-17T06:07:55.722Z,-1.80
2019-02-17T06:10:28.966Z,-1.80
2019-02-17T06:12:59.682Z,-1.80
2019-02-17T06:15:30.121Z,-1.80
2019-02-17T06:18:01.549Z,-1.70
2019-02-17T06:20:32.678Z,-1.70
2019-02-17T06:23:04.443Z,-1.70
2019-02-17T06:25:34.914Z,-1.70
2019-02-17T06:28:08.247Z,-1.70
2019-02-17T06:30:40.833Z,-1.60
2019-02-17T06:33:10.496Z,-1.50
2019-02-17T06:35:41.493Z,-1.40
2019-02-17T06:38:13.685Z,-1.30
2019-02-17T06:40:44.420Z,-1.10
2019-02-17T06:43:15.191Z,-1.10
2019-02-17T06:45:45.583Z,-1.10
2019-02-17T06:48:17.074Z,-1.10
2019-02-17T06:50:48.117Z,-1.10
2019-02-17T06:53:19.740Z,-1.20
2019-02-17T06:55:54.562Z,-1.10
2019-02-17T06:58:24.990Z,-1.10
2019-02-17T07:00:55.259Z,-1.10
2019-02-17T07:03:26.388Z,-1.00
2019-02-17T07:05:58.890Z,-0.90
2019-02-17T07:08:31.343Z,-0.90
2019-02-17T07:11:02.125Z,-0.80
2019-02-17T07:13:33.190Z,-0.70
2019-02-17T07:16:05.115Z,-0.60
2019-02-17T07:18:36.556Z,-0.50
2019-02-17T07:21:09.311Z,-0.40
2019-02-17T07:23:41.234Z,-0.30
2019-02-17T07:26:10.309Z,-0.20
2019-02-17T07:29:00.735Z,-0.10
2019-02-17T07:31:35.446Z,0.00
2019-02-17T07:34:07.622Z,0.10
2019-02-17T07:36:41.718Z,0.20
2019-02-17T07:39:13.155Z,0.30
2019-02-17T07:41:45.202Z,0.40
2019-02-17T07:44:15.875Z,0.50
2019-02-17T07:49:23.318Z,0.70
2019-02-17T07:51:55.311Z,1.00
2019-02-17T07:54:26.343Z,1.20
2019-02-17T07:56:58.675Z,1.30
2019-02-17T07:59:29.035Z,1.40
2019-02-17T08:01:59.368Z,1.60
2019-02-17T08:04:33.680Z,1.80
2019-02-17T08:07:04.250Z,1.90
2019-02-17T08:09:36.224Z,2.10
2019-02-17T08:12:08.074Z,2.20
2019-02-17T08:14:40.450Z,2.30
2019-02-17T08:17:13.181Z,2.40
2019-02-17T08:19:43.860Z,2.60
2019-02-17T08:22:14.762Z,2.70
2019-02-17T08:24:50.107Z,2.80
2019-02-17T08:27:20.403Z,3.00
2019-02-17T08:29:51.415Z,3.10
2019-02-17T08:32:22.374Z,3.20
2019-02-17T08:34:53.230Z,3.40
2019-02-17T08:37:26.279Z,3.60
2019-02-17T08:40:00.353Z,3.80
2019-02-17T08:42:31.193Z,4.30
2019-02-17T08:45:03.304Z,6.30
2019-02-17T08:47:33.632Z,8.20
2019-02-17T08:50:04.719Z,10.20
2019-02-17T08:52:54.881Z,11.40
2019-02-17T08:55:25.696Z,12.10
2019-02-17T08:57:55.903Z,12.50
2019-02-17T09:00:25.450Z,13.30
2019-02-17T09:02:55.387Z,12.60
2019-02-17T09:05:25.094Z,12.70
2019-02-17T09:07:59.397Z,12.50
2019-02-17T09:10:28.450Z,12.00
2019-02-17T09:13:00.024Z,11.80
2019-02-17T09:15:34.645Z,11.30
2019-02-17T09:18:07.312Z,10.50
2019-02-17T09:20:38.593Z,10.10
2019-02-17T09:23:09.119Z,10.00
2019-02-17T09:25:42.619Z,10.40
2019-02-17T09:28:12.789Z,11.10
2019-02-17T09:30:45.783Z,11.60
2019-02-17T09:33:19.061Z,11.70
2019-02-17T09:35:51.268Z,11.40
2019-02-17T09:38:23.085Z,10.70
2019-02-17T09:40:55.012Z,10.20
2019-02-17T09:43:25.187Z,9.70
2019-02-17T09:45:57.120Z,9.50
2019-02-17T09:48:29.213Z,9.60
2019-02-17T09:51:01.196Z,9.70
2019-02-17T09:53:33.150Z,9.70
2019-02-17T09:56:04.479Z,9.70
2019-02-17T09:58:34.107Z,9.80
2019-02-17T10:01:06.285Z,9.90
2019-02-17T10:03:39.958Z,10.10
2019-02-17T10:06:10.938Z,10.30
2019-02-17T10:08:43.966Z,10.50
2019-02-17T10:11:14.286Z,10.80
2019-02-17T10:13:44.625Z,11.20
2019-02-17T10:16:16.131Z,11.30
2019-02-17T10:18:45.766Z,11.30
2019-02-17T10:21:36.258Z,11.40
2019-02-17T10:24:08.886Z,11.70
2019-02-17T10:26:40.397Z,11.80
2019-02-17T10:29:12.119Z,11.70
2019-02-17T10:31:45.437Z,11.90
2019-02-17T10:34:17.114Z,12.20
2019-02-17T10:36:50.051Z,12.00
2019-02-17T10:39:23.153Z,12.20
2019-02-17T10:41:56.213Z,12.50
2019-02-17T10:44:27.699Z,12.70
2019-02-17T10:46:59.627Z,12.90
2019-02-17T10:49:29.993Z,13.30
2019-02-17T10:52:01.320Z,13.80
2019-02-17T10:54:35.857Z,14.20
2019-02-17T10:57:07.788Z,14.20
2019-02-17T10:59:41.084Z,14.00
2019-02-17T11:02:12.443Z,14.20
2019-02-17T11:04:44.969Z,14.80
2019-02-17T11:07:18.900Z,15.70
2019-02-17T11:09:50.987Z,16.20
2019-02-17T11:12:23.661Z,15.70
2019-02-17T11:14:53.638Z,15.10
2019-02-17T11:17:26.399Z,14.80
2019-02-17T11:19:58.478Z,14.90
2019-02-17T11:22:31.913Z,15.30
2019-02-17T11:25:03.452Z,15.30
2019-02-17T11:27:36.900Z,15.20
2019-02-17T11:30:09.847Z,15.00
2019-02-17T11:32:39.592Z,15.10
2019-02-17T11:35:10.434Z,15.50
2019-02-17T11:37:41.756Z,16.80
2019-02-17T11:40:13.590Z,18.20
2019-02-17T11:42:45.473Z,19.10
2019-02-17T11:45:25.679Z,20.10
2019-02-17T11:47:56.100Z,20.90
2019-02-17T11:50:27.430Z,21.50
2019-02-17T11:52:58.828Z,22.50
2019-02-17T11:55:31.737Z,23.10
2019-02-17T11:58:02.391Z,23.00
2019-02-17T12:00:34.306Z,21.90
2019-02-17T12:03:07.932Z,22.10
2019-02-17T12:05:36.185Z,22.30
2019-02-17T12:08:07.078Z,22.20
2019-02-17T12:10:37.557Z,22.40
2019-02-17T12:13:10.189Z,22.90
2019-02-17T12:15:40.600Z,23.70
2019-02-17T12:18:11.448Z,23.40
2019-02-17T12:20:47.196Z,24.00
2019-02-17T12:23:20.216Z,24.90
2019-02-17T12:25:55.417Z,26.10
2019-02-17T12:28:32.506Z,26.70
2019-02-17T12:31:02.222Z,26.00
2019-02-17T12:33:33.040Z,25.60
2019-02-17T12:36:04.567Z,25.90
2019-02-17T12:38:39.175Z,26.20
2019-02-17T12:41:11.884Z,26.30
2019-02-17T12:43:43.914Z,26.40
2019-02-17T12:46:16.162Z,26.90
2019-02-17T12:48:47.562Z,25.90
2019-02-17T12:51:17.909Z,25.60
2019-02-17T12:53:48.379Z,26.70
2019-02-17T12:56:22.021Z,26.90
2019-02-17T12:58:51.830Z,27.00
2019-02-17T13:01:22.203Z,26.70
2019-02-17T13:03:52.513Z,26.50
2019-02-17T13:06:22.646Z,26.90
2019-02-17T13:08:56.052Z,26.00
2019-02-17T13:11:27.163Z,26.20
2019-02-17T13:13:58.670Z,26.30
2019-02-17T13:16:29.336Z,26.60
2019-02-17T13:19:04.059Z,26.40
2019-02-17T13:21:34.739Z,26.30
2019-02-17T13:24:06.086Z,26.50
2019-02-17T13:26:36.484Z,27.40
2019-02-17T13:29:08.219Z,27.60
2019-02-17T13:31:40.406Z,26.10
2019-02-17T13:34:12.639Z,26.90
2019-02-17T13:36:44.994Z,27.30
2019-02-17T13:39:16.642Z,26.80
2019-02-17T13:41:47.439Z,26.60
2019-02-17T13:44:19.337Z,26.00
2019-02-17T13:46:49.978Z,26.60
2019-02-17T13:49:20.121Z,26.60
2019-02-17T13:51:52.048Z,27.10
2019-02-17T13:54:25.914Z,27.00
2019-02-17T13:56:57.389Z,26.70
2019-02-17T13:59:29.109Z,26.10
2019-02-17T14:02:00.427Z,26.20
2019-02-17T14:04:31.786Z,26.40
2019-02-17T14:07:01.529Z,26.00
2019-02-17T14:09:33.194Z,26.60
2019-02-17T14:12:04.781Z,26.60
2019-02-17T14:14:35.224Z,26.10
2019-02-17T14:17:07.757Z,26.10
2019-02-17T14:19:39.847Z,26.30
2019-02-17T14:22:11.202Z,25.90
2019-02-17T14:24:45.327Z,25.40
2019-02-17T14:27:16.186Z,26.10
2019-02-17T14:29:47.175Z,25.80
2019-02-17T14:32:19.538Z,25.40
2019-02-17T14:34:51.432Z,24.80
2019-02-17T14:37:22.982Z,24.20
2019-02-17T14:39:54.862Z,24.00
2019-02-17T14:42:25.661Z,23.90
2019-02-17T14:44:59.008Z,24.10
2019-02-17T14:47:29.665Z,23.60
2019-02-17T14:49:58.888Z,23.10
2019-02-17T14:52:30.164Z,23.10
2019-02-17T14:54:59.768Z,23.20
2019-02-17T14:57:30.454Z,22.70
2019-02-17T15:00:01.212Z,22.40
2019-02-17T15:02:30.988Z,22.00
2019-02-17T15:05:03.425Z,20.90
2019-02-17T15:07:35.455Z,19.70
2019-02-17T15:10:11.182Z,18.40
2019-02-17T15:12:42.145Z,17.40
2019-02-17T15:15:14.769Z,16.80
2019-02-17T15:17:44.968Z,16.30
2019-02-17T15:20:22.671Z,16.00
2019-02-17T15:22:53.500Z,15.60
2019-02-17T15:25:26.875Z,15.20
2019-02-17T15:27:57.067Z,14.80
2019-02-17T15:30:29.007Z,14.80
2019-02-17T15:33:04.111Z,14.80
2019-02-17T15:35:33.172Z,15.20
2019-02-17T15:38:06.948Z,15.70
2019-02-17T15:40:37.126Z,16.10
2019-02-17T15:43:07.865Z,15.90
2019-02-17T15:45:39.362Z,15.50
2019-02-17T15:48:09.699Z,14.80
2019-02-17T15:51:06.240Z,14.30
2019-02-17T15:53:34.905Z,13.90
2019-02-17T15:56:05.296Z,13.50
2019-02-17T15:58:36.643Z,13.20
2019-02-17T16:01:08.114Z,12.80
2019-02-17T16:03:40.152Z,12.60
2019-02-17T16:06:12.208Z,12.50
2019-02-17T16:08:45.879Z,12.30
2019-02-17T16:11:18.020Z,12.00
2019-02-17T16:13:48.691Z,11.90
2019-02-17T16:16:22.911Z,11.60
2019-02-17T16:18:55.113Z,11.40
2019-02-17T16:21:29.047Z,11.20
2019-02-17T16:24:01.016Z,10.90
2019-02-17T16:26:35.182Z,10.70
2019-02-17T16:29:07.338Z,10.50
2019-02-17T16:31:38.627Z,10.40
2019-02-17T16:34:08.845Z,10.30
2019-02-17T16:36:39.808Z,10.20
2019-02-17T16:39:15.177Z,10.00
2019-02-17T16:41:48.607Z,9.90
2019-02-17T16:44:20.062Z,9.50
2019-02-17T16:46:50.753Z,9.30
2019-02-17T16:49:22.753Z,9.10
2019-02-17T16:51:54.007Z,9.00
2019-02-17T16:54:26.392Z,8.80
2019-02-17T16:56:57.625Z,8.60
2019-02-17T16:59:30.544Z,8.70
2019-02-17T17:02:01.758Z,8.50
2019-02-17T17:04:31.579Z,8.40
2019-02-17T17:07:01.668Z,8.20
2019-02-17T17:09:32.204Z,8.00
2019-02-17T17:12:03.790Z,8.00
2019-02-17T17:14:33.875Z,7.90
2019-02-17T17:17:05.074Z,7.70
2019-02-17T17:19:35.796Z,7.50
2019-02-17T17:22:08.114Z,7.30
2019-02-17T17:24:40.953Z,7.50
2019-02-17T17:27:13.028Z,7.40
2019-02-17T17:29:45.146Z,7.30
2019-02-17T17:32:17.326Z,7.00
2019-02-17T17:34:48.043Z,6.90
2019-02-17T17:37:20.995Z,7.00
2019-02-17T17:39:54.896Z,6.90
2019-02-17T17:42:25.530Z,6.80
2019-02-17T17:44:55.887Z,6.60
2019-02-17T17:47:27.244Z,6.50
2019-02-17T17:49:58.748Z,6.50
2019-02-17T17:52:29.599Z,6.40
2019-02-17T17:55:00.361Z,6.10
2019-02-17T17:57:33.357Z,5.80
2019-02-17T18:00:04.279Z,5.60
2019-02-17T18:02:35.699Z,5.60
2019-02-17T18:05:09.568Z,5.60
2019-02-17T18:10:15.150Z,5.50
2019-02-17T18:12:46.855Z,5.50
2019-02-17T18:15:19.529Z,5.30
2019-02-17T18:17:54.676Z,5.50
2019-02-17T18:20:24.640Z,5.40
2019-02-17T18:22:54.371Z,5.30
2019-02-17T18:25:25.444Z,5.20
2019-02-17T18:27:57.696Z,5.10
2019-02-17T18:30:29.649Z,5.00
2019-02-17T18:33:01.546Z,5.00
2019-02-17T18:35:31.873Z,5.00
2019-02-17T18:38:03.096Z,5.00
2019-02-17T18:40:44.469Z,4.90
2019-02-17T18:43:06.969Z,4.90
2019-02-17T18:45:37.816Z,4.70
2019-02-17T18:48:09.332Z,4.70
2019-02-17T18:50:40.936Z,4.60
2019-02-17T18:53:15.357Z,4.60
2019-02-17T18:55:47.038Z,4.50
2019-02-17T18:58:18.892Z,4.30
2019-02-17T19:00:49.311Z,4.20
2019-02-17T19:03:21.270Z,4.00
2019-02-17T19:08:29.873Z,3.70
2019-02-17T19:11:03.917Z,3.70
2019-02-17T19:13:35.714Z,3.40
2019-02-17T19:16:08.254Z,3.30
2019-02-17T19:18:39.856Z,3.50
2019-02-17T19:21:11.367Z,3.50
2019-02-17T19:23:42.970Z,3.50
2019-02-17T19:26:13.095Z,3.50
2019-02-17T19:28:44.542Z,3.40
2019-02-17T19:31:18.854Z,3.30
2019-02-17T19:33:54.176Z,3.30
2019-02-17T19:36:24.517Z,3.20
2019-02-17T19:38:55.740Z,3.20
2019-02-17T19:41:27.364Z,3.10
2019-02-17T19:44:01.791Z,3.00
2019-02-17T19:46:33.235Z,3.10
2019-02-17T19:49:03.878Z,3.10
2019-02-17T19:51:34.784Z,3.00
2019-02-17T19:54:07.840Z,2.90
2019-02-17T19:56:39.912Z,2.90
2019-02-17T19:59:12.419Z,2.90
2019-02-17T20:01:44.512Z,2.80
2019-02-17T20:04:20.868Z,2.70
2019-02-17T20:06:52.243Z,2.60
2019-02-17T20:09:23.669Z,2.50
2019-02-17T20:11:56.305Z,2.50
2019-02-17T20:14:29.203Z,2.50
2019-02-17T20:16:59.786Z,2.40
2019-02-17T20:19:30.087Z,2.40
2019-02-17T20:22:01.544Z,2.50
2019-02-17T20:24:32.979Z,2.40
2019-02-17T20:27:03.316Z,2.30
2019-02-17T20:29:33.086Z,2.30
2019-02-17T20:32:05.055Z,2.10
2019-02-17T20:34:38.283Z,2.10
2019-02-17T20:37:07.889Z,2.10
2019-02-17T20:39:41.221Z,2.10
2019-02-17T20:42:13.302Z,2.00
2019-02-17T20:44:45.524Z,1.90
2019-02-17T20:47:19.370Z,2.00
2019-02-17T20:49:51.271Z,2.00
2019-02-17T20:52:21.065Z,2.00
2019-02-17T20:54:52.992Z,1.90
2019-02-17T20:57:23.195Z,2.00
2019-02-17T20:59:54.341Z,2.00
2019-02-17T21:02:26.189Z,1.90
2019-02-17T21:05:00.209Z,1.80
2019-02-17T21:07:32.372Z,1.80
2019-02-17T21:10:03.031Z,1.70
2019-02-17T21:12:34.740Z,1.70
2019-02-17T21:15:05.681Z,1.60
2019-02-17T21:17:37.075Z,1.50
2019-02-17T21:20:08.785Z,1.50
2019-02-17T21:22:40.726Z,1.50
2019-02-17T21:25:15.435Z,1.50
2019-02-17T21:27:48.893Z,1.50
2019-02-17T21:30:21.039Z,1.50
2019-02-17T21:32:53.055Z,1.50
2019-02-17T21:35:26.478Z,1.40
2019-02-17T21:37:59.936Z,1.30
2019-02-17T21:40:33.568Z,1.20
2019-02-17T21:43:04.400Z,1.20
2019-02-17T21:45:35.258Z,1.20
2019-02-17T21:48:06.105Z,1.20
2019-02-17T21:50:58.879Z,1.10
2019-02-17T21:53:29.789Z,1.00
2019-02-17T21:56:01.174Z,0.90
2019-02-17T21:58:33.216Z,0.90
2019-02-17T22:01:04.297Z,0.90
2019-02-17T22:03:34.964Z,0.90
2019-02-17T22:06:07.298Z,0.90
2019-02-17T22:08:38.737Z,0.80
2019-02-17T22:11:10.105Z,0.80
2019-02-17T22:13:43.038Z,0.80
2019-02-17T22:16:13.845Z,0.80
2019-02-17T22:18:45.688Z,0.80
2019-02-17T22:21:17.053Z,0.80
2019-02-17T22:23:47.879Z,0.80
2019-02-17T22:26:21.623Z,0.80
2019-02-17T22:28:52.044Z,0.90
2019-02-17T22:31:24.292Z,0.80
2019-02-17T22:33:55.471Z,0.80
2019-02-17T22:36:29.324Z,0.80
2019-02-17T22:39:00.668Z,0.70
2019-02-17T22:41:30.271Z,0.70
2019-02-17T22:44:01.849Z,0.70
2019-02-17T22:46:32.087Z,0.70
2019-02-17T22:49:02.914Z,0.70
2019-02-17T22:51:33.867Z,0.60
2019-02-17T22:54:05.438Z,0.60
2019-02-17T22:56:38.786Z,0.50
2019-02-17T22:59:09.659Z,0.30
2019-02-17T23:01:40.027Z,0.30
2019-02-17T23:04:11.933Z,0.30
2019-02-17T23:06:53.566Z,0.30
2019-02-17T23:09:15.926Z,0.40
2019-02-17T23:11:48.411Z,0.40
2019-02-17T23:14:18.222Z,0.40
2019-02-17T23:16:52.435Z,0.40
2019-02-17T23:19:23.965Z,0.20
2019-02-17T23:21:53.640Z,0.20
2019-02-17T23:24:25.489Z,0.10
2019-02-17T23:26:56.621Z,0.10
2019-02-17T23:29:28.450Z,0.10
2019-02-17T23:32:00.347Z,0.20
2019-02-17T23:34:31.548Z,0.20
2019-02-17T23:37:05.300Z,0.20
2019-02-17T23:39:39.107Z,0.30
2019-02-17T23:42:09.939Z,0.30
2019-02-17T23:44:42.551Z,0.30
2019-02-17T23:47:14.275Z,0.40
2019-02-17T23:49:45.701Z,0.40
2019-02-17T23:52:17.202Z,0.40
2019-02-17T23:54:48.307Z,0.30
2019-02-17T23:57:19.876Z,0.30
2019-02-17T23:59:50.539Z,0.30
